Time;durP1;ratioP1;P1;durP2;ratioP2;P2;SDS_P1;SDS_P2;PMS_P1;PMS_P2;Temp;Humidity;BMP_temperature;BMP_pressure;BME280_temperature;BME280_humidity;BME280_pressure;Samples;Min_cycle;Max_cycle;Signal;HPM_P1;HPM_P2
2022/06/23 00:00:42;;;;;;;64.30;6.00;;;;;;;;;;5055749;28;20527;-84
2022/06/23 00:03:09;;;;;;;62.23;5.97;;;;;;;;;;5055095;28;20483;-84
2022/06/23 00:05:38;;;;;;;63.00;6.20;;;;;;;;;;5055144;28;20439;-84
2022/06/23 00:08:07;;;;;;;62.90;6.77;;;;;;;;;;5054259;28;20442;-84
2022/06/23 00:10:38;;;;;;;68.60;6.07;;;;;;;;;;5055302;28;20842;-84
2022/06/23 00:13:13;;;;;;;61.80;5.40;;;;;;;;;;5055155;28;20456;-84
2022/06/23 00:15:42;;;;;;;62.73;5.90;;;;;;;;;;5054833;28;20457;-84
2022/06/23 00:18:17;;;;;;;63.80;6.67;;;;;;;;;;5052443;28;20928;-85
2022/06/23 00:20:46;;;;;;;63.17;7.20;;;;;;;;;;5054232;28;20526;-84
2022/06/23 00:23:16;;;;;;;61.93;5.80;;;;;;;;;;5053813;28;20486;-84
2022/06/23 00:25:46;;;;;;;61.70;6.03;;;;;;;;;;5053402;28;20435;-84
2022/06/23 00:28:16;;;;;;;61.37;6.63;;;;;;;;;;5052575;28;21192;-84
2022/06/23 00:30:44;;;;;;;62.57;6.57;;;;;;;;;;5053156;28;20457;-84
2022/06/23 00:33:19;;;;;;;63.00;6.97;;;;;;;;;;5053359;28;20435;-84
2022/06/23 00:35:46;;;;;;;64.13;6.67;;;;;;;;;;5053241;28;20485;-85
2022/06/23 00:38:20;;;;;;;62.57;6.20;;;;;;;;;;5052919;28;20515;-85
2022/06/23 00:40:49;;;;;;;62.40;7.20;;;;;;;;;;5053152;28;20533;-84
2022/06/23 00:43:17;;;;;;;63.73;6.40;;;;;;;;;;5052643;28;20476;-84
2022/06/23 00:45:46;;;;;;;64.97;7.53;;;;;;;;;;5052652;28;20936;-85
2022/06/23 00:48:16;;;;;;;63.43;6.17;;;;;;;;;;5052104;28;20438;-84
2022/06/23 00:50:48;;;;;;;64.53;6.47;;;;;;;;;;5051392;28;20516;-84
2022/06/23 00:53:17;;;;;;;68.23;7.90;;;;;;;;;;5052727;28;20949;-85
2022/06/23 00:55:48;;;;;;;64.10;6.40;;;;;;;;;;5052553;28;20499;-85
2022/06/23 00:58:23;;;;;;;62.30;6.40;;;;;;;;;;5052552;28;20497;-85
2022/06/23 01:00:52;;;;;;;64.10;6.00;;;;;;;;;;5052184;28;21274;-84
2022/06/23 01:03:23;;;;;;;63.20;6.70;;;;;;;;;;5052194;28;20481;-85
2022/06/23 01:05:52;;;;;;;62.27;5.60;;;;;;;;;;5052519;28;20438;-84
2022/06/23 01:08:23;;;;;;;66.37;6.73;;;;;;;;;;5052998;28;20449;-85
2022/06/23 01:10:54;;;;;;;64.97;7.27;;;;;;;;;;5053834;28;20470;-84
2022/06/23 01:13:28;;;;;;;62.77;6.87;;;;;;;;;;5053523;28;20481;-85
2022/06/23 01:15:56;;;;;;;62.83;6.43;;;;;;;;;;5053335;28;21010;-85
2022/06/23 01:18:26;;;;;;;61.97;6.47;;;;;;;;;;5053060;28;20458;-85
2022/06/23 01:20:55;;;;;;;64.97;7.77;;;;;;;;;;5052381;28;20483;-85
2022/06/23 01:23:37;;;;;;;66.07;7.30;;;;;;;;;;5049918;28;20488;-85
2022/06/23 01:26:19;;;;;;;62.40;6.90;;;;;;;;;;5052025;28;20515;-85
2022/06/23 01:28:48;;;;;;;67.57;7.40;;;;;;;;;;5050680;28;20862;-85
2022/06/23 01:31:17;;;;;;;64.27;7.70;;;;;;;;;;5052219;28;20454;-85
2022/06/23 01:33:47;;;;;;;64.47;7.37;;;;;;;;;;5052453;28;20442;-85
2022/06/23 01:36:16;;;;;;;62.17;5.80;;;;;;;;;;5052202;28;20443;-85
2022/06/23 01:38:49;;;;;;;63.40;7.80;;;;;;;;;;5051979;28;20993;-86
2022/06/23 01:41:19;;;;;;;64.73;7.70;;;;;;;;;;5052465;28;20469;-85
2022/06/23 01:43:52;;;;;;;66.90;6.70;;;;;;;;;;5051381;28;20540;-85
2022/06/23 01:46:23;;;;;;;64.60;7.93;;;;;;;;;;5051709;28;20448;-82
2022/06/23 01:48:55;;;;;;;64.47;6.27;;;;;;;;;;5051531;28;20426;-82
2022/06/23 01:51:24;;;;;;;65.37;7.50;;;;;;;;;;5051780;28;20465;-83
2022/06/23 01:53:51;;;;;;;64.00;7.47;;;;;;;;;;5050949;28;20797;-82
2022/06/23 01:56:33;;;;;;;65.77;6.70;;;;;;;;;;5049697;28;20501;-86
2022/06/23 01:59:07;;;;;;;61.40;6.50;;;;;;;;;;5051538;28;20447;-86
2022/06/23 02:01:39;;;;;;;63.30;7.30;;;;;;;;;;5051951;28;20480;-85
2022/06/23 02:04:10;;;;;;;63.53;7.17;;;;;;;;;;5051221;28;20528;-85
2022/06/23 02:06:42;;;;;;;70.23;8.70;;;;;;;;;;5051324;28;20422;-85
2022/06/23 02:09:14;;;;;;;63.57;6.70;;;;;;;;;;5051475;28;20476;-86
2022/06/23 02:11:45;;;;;;;63.67;6.70;;;;;;;;;;5051689;28;21025;-86
2022/06/23 02:14:20;;;;;;;63.50;6.50;;;;;;;;;;5051961;28;20433;-86
2022/06/23 02:16:50;;;;;;;66.00;7.60;;;;;;;;;;5051820;28;20425;-85
2022/06/23 02:19:21;;;;;;;61.97;6.47;;;;;;;;;;5051694;28;20499;-85
2022/06/23 02:21:51;;;;;;;64.70;6.47;;;;;;;;;;5051889;28;20452;-86
2022/06/23 02:24:22;;;;;;;64.37;7.23;;;;;;;;;;5051099;28;21071;-85
2022/06/23 02:26:57;;;;;;;65.70;6.43;;;;;;;;;;5051570;28;20921;-85
2022/06/23 02:29:27;;;;;;;67.13;8.00;;;;;;;;;;5051230;28;20465;-82
2022/06/23 02:31:57;;;;;;;61.27;6.00;;;;;;;;;;5051567;28;20466;-82
2022/06/23 02:34:28;;;;;;;64.63;8.50;;;;;;;;;;5051677;28;20447;-83
2022/06/23 02:37:00;;;;;;;63.10;7.60;;;;;;;;;;5052006;28;20439;-83
2022/06/23 02:39:31;;;;;;;62.00;6.80;;;;;;;;;;5051610;28;20437;-85
2022/06/23 02:42:01;;;;;;;61.57;6.40;;;;;;;;;;5052301;28;20454;-84
2022/06/23 02:44:38;;;;;;;63.60;7.23;;;;;;;;;;5050962;28;20486;-84
2022/06/23 02:47:17;;;;;;;62.37;6.73;;;;;;;;;;5051974;28;20460;-84
2022/06/23 02:49:59;;;;;;;64.77;7.10;;;;;;;;;;5051385;28;20464;-84
2022/06/23 02:52:44;;;;;;;65.30;7.20;;;;;;;;;;5051460;28;20432;-83
2022/06/23 02:55:21;;;;;;;64.50;6.03;;;;;;;;;;5053539;28;20416;-84
2022/06/23 02:57:51;;;;;;;61.63;6.67;;;;;;;;;;5057041;28;20432;-84
2022/06/23 03:00:24;;;;;;;63.53;6.50;;;;;;;;;;5050906;28;20466;-83
2022/06/23 03:02:57;;;;;;;63.07;6.20;;;;;;;;;;5051616;28;20415;-83
2022/06/23 03:05:30;;;;;;;62.97;6.40;;;;;;;;;;5050734;28;20485;-83
2022/06/23 03:08:00;;;;;;;61.57;5.97;;;;;;;;;;5050747;28;20431;-83
2022/06/23 03:10:30;;;;;;;65.10;7.63;;;;;;;;;;5051867;28;20462;-84
2022/06/23 03:13:06;;;;;;;63.30;6.67;;;;;;;;;;5054628;28;20479;-83
2022/06/23 03:15:37;;;;;;;64.37;6.97;;;;;;;;;;5055292;28;20429;-84
2022/06/23 03:18:08;;;;;;;65.77;7.17;;;;;;;;;;5054690;28;20418;-83
2022/06/23 03:20:39;;;;;;;63.70;6.70;;;;;;;;;;5054534;28;20466;-84
2022/06/23 03:23:11;;;;;;;62.03;6.30;;;;;;;;;;5054837;28;20414;-84
2022/06/23 03:25:41;;;;;;;62.50;6.77;;;;;;;;;;5053902;28;20569;-83
2022/06/23 03:28:15;;;;;;;61.90;6.20;;;;;;;;;;5053860;28;20451;-84
2022/06/23 03:30:47;;;;;;;65.13;6.93;;;;;;;;;;5052188;28;20984;-83
2022/06/23 03:33:18;;;;;;;63.47;6.50;;;;;;;;;;5054543;28;20438;-83
2022/06/23 03:35:50;;;;;;;63.20;6.43;;;;;;;;;;5054600;28;20434;-83
2022/06/23 03:38:19;;;;;;;63.87;6.90;;;;;;;;;;5054326;28;20451;-84
2022/06/23 03:43:39;;;;;;;64.10;6.53;;;;;;;;;;5054484;28;20419;-83
2022/06/23 03:46:11;;;;;;;62.70;6.73;;;;;;;;;;5053277;28;20491;-83
2022/06/23 03:48:41;;;;;;;65.13;7.07;;;;;;;;;;5053742;28;20419;-83
2022/06/23 03:51:14;;;;;;;62.37;6.47;;;;;;;;;;5054326;28;20481;-83
2022/06/23 03:53:47;;;;;;;63.23;6.57;;;;;;;;;;5054122;28;20431;-83
2022/06/23 03:56:17;;;;;;;63.60;7.20;;;;;;;;;;5054002;28;20426;-83
2022/06/23 03:58:46;;;;;;;61.97;6.50;;;;;;;;;;5054078;28;20413;-84
2022/06/23 04:01:21;;;;;;;63.57;6.77;;;;;;;;;;5054096;28;20487;-83
2022/06/23 04:03:54;;;;;;;61.47;6.33;;;;;;;;;;5070052;28;20461;-83
2022/06/23 04:06:32;;;;;;;66.03;7.37;;;;;;;;;;5073184;28;20441;-83
2022/06/23 04:09:01;;;;;;;64.33;6.73;;;;;;;;;;5073453;28;20445;-84
2022/06/23 04:11:46;;;;;;;62.57;7.10;;;;;;;;;;5073475;28;20460;-84
2022/06/23 04:14:17;;;;;;;62.57;7.30;;;;;;;;;;5073843;28;20441;-84
2022/06/23 04:16:46;;;;;;;61.77;5.93;;;;;;;;;;5073502;28;20916;-84
2022/06/23 04:19:17;;;;;;;62.97;6.60;;;;;;;;;;5073354;28;20440;-83
2022/06/23 04:21:46;;;;;;;62.70;6.20;;;;;;;;;;5073126;28;20474;-83
2022/06/23 04:24:17;;;;;;;64.87;7.70;;;;;;;;;;5073469;28;20480;-84
2022/06/23 04:26:45;;;;;;;64.77;6.07;;;;;;;;;;5072931;28;20449;-83
2022/06/23 04:29:17;;;;;;;64.60;6.80;;;;;;;;;;5073066;28;20441;-84
2022/06/23 04:31:51;;;;;;;63.70;6.60;;;;;;;;;;5073361;28;20456;-83
2022/06/23 04:34:21;;;;;;;62.30;6.87;;;;;;;;;;5065819;28;20489;-85
2022/06/23 04:36:48;;;;;;;65.13;7.17;;;;;;;;;;5053809;28;20450;-84
2022/06/23 04:39:25;;;;;;;66.23;6.67;;;;;;;;;;5053874;28;20460;-84
2022/06/23 04:41:55;;;;;;;63.27;6.60;;;;;;;;;;5053341;28;20517;-84
2022/06/23 04:44:26;;;;;;;61.37;6.00;;;;;;;;;;5053731;28;20880;-84
2022/06/23 04:46:57;;;;;;;64.97;6.80;;;;;;;;;;5053197;28;20443;-84
2022/06/23 04:49:29;;;;;;;63.33;6.73;;;;;;;;;;5052637;28;20511;-85
2022/06/23 04:51:59;;;;;;;62.60;6.20;;;;;;;;;;5052793;28;20465;-84
2022/06/23 04:54:28;;;;;;;63.93;6.63;;;;;;;;;;5053053;28;20497;-84
2022/06/23 04:57:00;;;;;;;62.70;6.33;;;;;;;;;;5053086;28;20465;-84
2022/06/23 04:59:39;;;;;;;66.23;6.60;;;;;;;;;;5052946;28;20425;-85
2022/06/23 05:02:20;;;;;;;63.60;6.07;;;;;;;;;;5052925;28;20462;-84
2022/06/23 05:04:52;;;;;;;62.73;6.57;;;;;;;;;;5053082;28;20479;-84
2022/06/23 05:07:21;;;;;;;61.93;6.60;;;;;;;;;;5050831;28;20458;-84
2022/06/23 05:09:50;;;;;;;64.40;6.10;;;;;;;;;;5052138;28;20782;-85
2022/06/23 05:12:20;;;;;;;60.97;6.10;;;;;;;;;;5051893;28;20484;-85
2022/06/23 05:14:51;;;;;;;63.13;6.70;;;;;;;;;;5052409;28;20878;-85
2022/06/23 05:17:22;;;;;;;63.57;5.90;;;;;;;;;;5052470;28;20881;-85
2022/06/23 05:19:53;;;;;;;61.70;6.20;;;;;;;;;;5052394;28;20512;-85
2022/06/23 05:22:25;;;;;;;62.90;6.37;;;;;;;;;;5052590;28;20515;-84
2022/06/23 05:24:52;;;;;;;65.50;6.67;;;;;;;;;;5052605;28;21009;-85
2022/06/23 05:27:23;;;;;;;62.57;6.30;;;;;;;;;;5052197;28;20814;-85
2022/06/23 05:29:54;;;;;;;63.47;7.07;;;;;;;;;;5052231;28;20423;-84
2022/06/23 05:32:25;;;;;;;66.90;6.90;;;;;;;;;;5052269;28;20438;-84
2022/06/23 05:34:56;;;;;;;62.03;6.73;;;;;;;;;;5052069;28;20431;-84
2022/06/23 05:37:26;;;;;;;61.70;6.20;;;;;;;;;;5052559;28;20458;-84
2022/06/23 05:39:56;;;;;;;63.63;6.57;;;;;;;;;;5051551;28;20438;-84
2022/06/23 05:42:25;;;;;;;62.77;6.00;;;;;;;;;;5054912;28;20443;-85
2022/06/23 05:44:56;;;;;;;62.87;6.73;;;;;;;;;;5069853;28;20470;-85
2022/06/23 05:47:25;;;;;;;61.90;6.07;;;;;;;;;;5067985;28;20444;-85
2022/06/23 05:49:56;;;;;;;63.77;7.27;;;;;;;;;;5070755;28;20436;-84
2022/06/23 05:52:24;;;;;;;64.87;6.80;;;;;;;;;;5069577;28;20423;-85
2022/06/23 05:54:55;;;;;;;63.30;6.33;;;;;;;;;;5069569;28;20478;-85
2022/06/23 05:57:25;;;;;;;62.10;6.67;;;;;;;;;;5070195;28;20407;-85
2022/06/23 05:59:58;;;;;;;60.97;5.73;;;;;;;;;;5061823;28;20417;-84
2022/06/23 06:02:30;;;;;;;65.53;6.27;;;;;;;;;;5052367;28;20697;-85
2022/06/23 06:04:59;;;;;;;62.80;5.53;;;;;;;;;;5052062;28;20521;-84
2022/06/23 06:07:28;;;;;;;65.00;7.00;;;;;;;;;;5052345;28;20938;-84
2022/06/23 06:09:56;;;;;;;63.53;6.30;;;;;;;;;;5050230;28;20504;-86
2022/06/23 06:12:27;;;;;;;61.27;6.13;;;;;;;;;;5051421;28;20449;-85
2022/06/23 06:14:57;;;;;;;61.40;6.00;;;;;;;;;;5051408;28;20482;-84
2022/06/23 06:17:26;;;;;;;61.30;5.60;;;;;;;;;;5051878;28;20447;-84
2022/06/23 06:19:57;;;;;;;64.47;7.00;;;;;;;;;;5051720;28;20448;-85
2022/06/23 06:22:42;;;;;;;61.80;5.87;;;;;;;;;;5051924;28;20427;-85
2022/06/23 06:25:17;;;;;;;63.57;5.30;;;;;;;;;;5051999;28;20480;-85
2022/06/23 06:27:44;;;;;;;62.47;5.60;;;;;;;;;;5051242;28;20460;-85
2022/06/23 06:30:15;;;;;;;63.87;6.77;;;;;;;;;;5051863;28;20456;-85
2022/06/23 06:32:42;;;;;;;64.00;6.17;;;;;;;;;;5051408;28;20497;-85
2022/06/23 06:35:16;;;;;;;62.20;5.87;;;;;;;;;;5051428;28;20840;-83
2022/06/23 06:37:45;;;;;;;62.30;5.30;;;;;;;;;;5051873;28;20864;-86
2022/06/23 06:40:13;;;;;;;62.33;4.93;;;;;;;;;;5052236;28;20475;-86
2022/06/23 06:42:43;;;;;;;62.73;5.20;;;;;;;;;;5051081;28;20494;-86
2022/06/23 06:45:12;;;;;;;62.27;5.07;;;;;;;;;;5054077;28;20514;-85
2022/06/23 06:47:40;;;;;;;62.40;5.33;;;;;;;;;;5054973;28;20452;-86
2022/06/23 06:50:14;;;;;;;61.57;4.70;;;;;;;;;;5055569;28;20464;-86
2022/06/23 06:52:43;;;;;;;62.50;5.90;;;;;;;;;;5054740;28;20421;-86
2022/06/23 06:55:14;;;;;;;63.80;5.13;;;;;;;;;;5055041;28;20444;-84
2022/06/23 06:57:48;;;;;;;62.37;4.60;;;;;;;;;;5056089;28;20471;-84
2022/06/23 07:00:20;;;;;;;60.07;4.53;;;;;;;;;;5056977;28;20872;-84
2022/06/23 07:02:50;;;;;;;63.00;4.60;;;;;;;;;;5056723;28;20445;-84
2022/06/23 07:05:22;;;;;;;65.07;5.03;;;;;;;;;;5057837;28;20537;-84
2022/06/23 07:07:54;;;;;;;62.77;5.10;;;;;;;;;;5055786;28;20487;-84
2022/06/23 07:10:25;;;;;;;63.40;4.53;;;;;;;;;;5056099;28;20533;-84
2022/06/23 07:12:55;;;;;;;65.80;5.00;;;;;;;;;;5055893;28;20687;-83
2022/06/23 07:15:24;;;;;;;61.80;4.50;;;;;;;;;;5056040;28;20455;-83
2022/06/23 07:17:53;;;;;;;63.23;4.90;;;;;;;;;;5056450;28;20436;-84
2022/06/23 07:20:23;;;;;;;59.90;4.00;;;;;;;;;;5056775;28;20456;-83
2022/06/23 07:22:53;;;;;;;68.23;5.57;;;;;;;;;;5059576;28;20444;-83
2022/06/23 07:25:21;;;;;;;60.07;3.73;;;;;;;;;;5060093;28;20533;-83
2022/06/23 07:27:52;;;;;;;60.93;4.40;;;;;;;;;;5058200;28;20448;-84
2022/06/23 07:30:20;;;;;;;62.10;4.87;;;;;;;;;;5056186;28;20461;-84
2022/06/23 07:32:50;;;;;;;60.20;4.07;;;;;;;;;;5053837;28;20871;-84
2022/06/23 07:35:24;;;;;;;61.20;4.43;;;;;;;;;;5055054;28;21000;-84
2022/06/23 07:37:57;;;;;;;60.47;4.20;;;;;;;;;;5055697;28;20465;-85
2022/06/23 07:40:25;;;;;;;63.67;3.93;;;;;;;;;;5059567;28;20511;-84
2022/06/23 07:42:55;;;;;;;63.77;4.53;;;;;;;;;;5061516;28;20448;-84
2022/06/23 07:45:25;;;;;;;65.33;4.63;;;;;;;;;;5053167;28;20986;-84
2022/06/23 07:47:53;;;;;;;60.30;4.50;;;;;;;;;;5053944;28;20854;-85
2022/06/23 07:50:20;;;;;;;60.43;4.60;;;;;;;;;;5053594;28;20464;-85
2022/06/23 07:52:48;;;;;;;60.77;4.17;;;;;;;;;;5053709;28;20445;-86
2022/06/23 07:55:20;;;;;;;62.17;4.33;;;;;;;;;;5053602;28;20441;-85
2022/06/23 07:57:47;;;;;;;62.83;4.00;;;;;;;;;;5052836;28;20498;-86
2022/06/23 08:00:15;;;;;;;61.20;4.13;;;;;;;;;;5054215;28;20472;-86
2022/06/23 08:02:45;;;;;;;62.00;4.10;;;;;;;;;;5054479;28;20805;-85
2022/06/23 08:05:14;;;;;;;61.90;3.87;;;;;;;;;;5054439;28;20447;-87
2022/06/23 08:07:42;;;;;;;63.03;4.60;;;;;;;;;;5053796;28;20436;-87
2022/06/23 08:10:11;;;;;;;61.97;4.10;;;;;;;;;;5053558;28;20510;-87
2022/06/23 08:12:55;;;;;;;62.07;4.03;;;;;;;;;;5053465;28;20468;-86
2022/06/23 08:18:18;;;;;;;61.97;4.40;;;;;;;;;;5053260;28;20431;-85
2022/06/23 08:20:48;;;;;;;60.50;4.30;;;;;;;;;;5053770;28;21005;-84
2022/06/23 08:23:17;;;;;;;60.93;4.40;;;;;;;;;;5054035;28;21016;-84
2022/06/23 08:25:44;;;;;;;62.80;5.20;;;;;;;;;;5053358;28;20476;-82
2022/06/23 08:28:13;;;;;;;60.17;3.73;;;;;;;;;;5052678;28;20476;-83
2022/06/23 08:30:41;;;;;;;63.33;4.10;;;;;;;;;;5053056;28;20470;-86
2022/06/23 08:33:08;;;;;;;62.20;4.40;;;;;;;;;;5053105;28;20969;-87
2022/06/23 08:35:39;;;;;;;64.73;4.70;;;;;;;;;;5052900;28;20450;-86
2022/06/23 08:38:09;;;;;;;59.57;4.00;;;;;;;;;;5052696;28;20878;-86
2022/06/23 08:40:42;;;;;;;61.97;4.87;;;;;;;;;;5053157;28;20502;-83
2022/06/23 08:43:14;;;;;;;63.27;3.73;;;;;;;;;;5053543;28;20810;-83
2022/06/23 08:45:46;;;;;;;59.50;3.60;;;;;;;;;;5053138;28;20472;-82
2022/06/23 08:48:19;;;;;;;60.30;3.30;;;;;;;;;;5050873;28;20441;-84
2022/06/23 08:50:47;;;;;;;63.90;4.60;;;;;;;;;;5051952;28;20468;-83
2022/06/23 08:53:17;;;;;;;60.67;4.53;;;;;;;;;;5052237;28;20440;-82
2022/06/23 08:55:48;;;;;;;60.20;3.80;;;;;;;;;;5052286;28;21015;-83
2022/06/23 08:58:18;;;;;;;62.97;4.33;;;;;;;;;;5052136;28;20523;-84
2022/06/23 09:00:51;;;;;;;61.33;3.90;;;;;;;;;;5052754;28;20461;-86
2022/06/23 09:03:21;;;;;;;70.07;4.30;;;;;;;;;;5052229;28;20452;-86
2022/06/23 09:05:51;;;;;;;64.00;3.80;;;;;;;;;;5052344;28;20487;-85
2022/06/23 09:08:21;;;;;;;64.40;3.20;;;;;;;;;;5051709;28;20464;-84
2022/06/23 09:10:54;;;;;;;62.23;3.90;;;;;;;;;;5051883;28;20473;-86
2022/06/23 09:13:28;;;;;;;62.80;4.30;;;;;;;;;;5052300;28;20486;-86
2022/06/23 09:16:08;;;;;;;59.97;3.50;;;;;;;;;;5051935;28;20446;-85
2022/06/23 09:18:56;;;;;;;60.23;3.53;;;;;;;;;;5051924;28;20932;-84
2022/06/23 09:21:29;;;;;;;59.67;3.43;;;;;;;;;;5053000;28;20515;-84
2022/06/23 09:24:17;;;;;;;59.87;3.70;;;;;;;;;;5051049;28;20527;-85
2022/06/23 09:26:49;;;;;;;62.43;3.53;;;;;;;;;;5052508;28;20482;-86
2022/06/23 09:29:22;;;;;;;61.40;3.67;;;;;;;;;;5051488;28;20449;-86
2022/06/23 09:31:58;;;;;;;61.17;3.63;;;;;;;;;;5051496;28;20468;-87
2022/06/23 09:34:31;;;;;;;59.20;3.10;;;;;;;;;;5051921;28;20805;-85
2022/06/23 09:37:12;;;;;;;61.37;3.80;;;;;;;;;;5052581;28;20498;-84
2022/06/23 09:39:53;;;;;;;65.13;3.30;;;;;;;;;;5052409;28;20458;-87
2022/06/23 09:42:33;;;;;;;60.57;3.43;;;;;;;;;;5052315;28;20420;-86
2022/06/23 09:45:05;;;;;;;59.83;3.43;;;;;;;;;;5052288;28;20958;-86
2022/06/23 09:47:44;;;;;;;63.47;4.37;;;;;;;;;;5052024;28;20817;-87
2022/06/23 09:50:29;;;;;;;60.50;3.30;;;;;;;;;;5051815;28;20492;-88
2022/06/23 09:53:05;;;;;;;65.10;4.67;;;;;;;;;;5051747;28;20444;-88
2022/06/23 09:55:46;;;;;;;59.90;2.97;;;;;;;;;;5050335;28;20584;-87
2022/06/23 09:58:25;;;;;;;64.03;3.40;;;;;;;;;;5051474;28;20460;-88
2022/06/23 10:00:56;;;;;;;59.03;3.53;;;;;;;;;;5052192;28;20456;-85
2022/06/23 10:03:36;;;;;;;59.90;4.27;;;;;;;;;;5052633;28;20828;-86
2022/06/23 10:06:21;;;;;;;62.50;3.23;;;;;;;;;;5052163;28;20471;-88
2022/06/23 10:08:53;;;;;;;62.63;4.07;;;;;;;;;;5052281;28;20455;-86
2022/06/23 10:11:28;;;;;;;63.40;3.63;;;;;;;;;;5052265;28;20527;-88
2022/06/23 10:14:09;;;;;;;60.40;3.27;;;;;;;;;;5051982;28;20443;-88
2022/06/23 10:16:46;;;;;;;63.47;3.60;;;;;;;;;;5051990;28;20451;-86
2022/06/23 10:19:24;;;;;;;66.73;3.43;;;;;;;;;;5052613;28;20440;-87
2022/06/23 10:21:59;;;;;;;59.57;3.70;;;;;;;;;;5056159;28;20578;-87
2022/06/23 10:24:38;;;;;;;61.00;3.50;;;;;;;;;;5055969;28;20431;-87
2022/06/23 10:27:28;;;;;;;58.60;3.43;;;;;;;;;;5072727;28;20506;-87
2022/06/23 10:30:03;;;;;;;58.77;3.00;;;;;;;;;;5069461;28;20801;-85
2022/06/23 10:32:37;;;;;;;61.67;4.10;;;;;;;;;;5072994;28;20455;-88
2022/06/23 10:35:21;;;;;;;60.00;3.33;;;;;;;;;;5059627;28;20456;-87
2022/06/23 10:38:03;;;;;;;62.03;3.33;;;;;;;;;;5055526;28;20526;-86
2022/06/23 10:40:45;;;;;;;63.20;4.53;;;;;;;;;;5053628;28;20473;-88
2022/06/23 10:43:24;;;;;;;59.30;3.60;;;;;;;;;;5055806;28;20494;-83
2022/06/23 10:45:52;;;;;;;58.30;3.30;;;;;;;;;;5055618;28;20486;-88
2022/06/23 10:48:29;;;;;;;59.70;3.53;;;;;;;;;;5055806;28;20452;-87
2022/06/23 10:51:03;;;;;;;59.30;3.63;;;;;;;;;;5055643;28;20502;-85
2022/06/23 10:53:56;;;;;;;58.93;3.10;;;;;;;;;;5056023;28;20421;-88
2022/06/23 10:56:30;;;;;;;59.67;3.47;;;;;;;;;;5055407;28;20448;-88
2022/06/23 10:59:14;;;;;;;58.90;3.20;;;;;;;;;;5053455;28;20463;-87
2022/06/23 11:01:54;;;;;;;60.23;5.00;;;;;;;;;;5055589;28;20456;-88
2022/06/23 11:04:33;;;;;;;60.60;3.63;;;;;;;;;;5055502;28;20432;-87
2022/06/23 11:07:10;;;;;;;60.17;3.17;;;;;;;;;;5055116;28;20464;-88
2022/06/23 11:09:44;;;;;;;60.50;3.20;;;;;;;;;;5035724;28;20994;-84
2022/06/23 11:12:19;;;;;;;59.47;3.20;;;;;;;;;;5035020;28;21031;-87
2022/06/23 11:14:52;;;;;;;57.90;3.07;;;;;;;;;;5034765;28;20449;-85
2022/06/23 11:17:23;;;;;;;59.30;3.07;;;;;;;;;;5034622;28;20453;-85
2022/06/23 11:19:56;;;;;;;63.47;4.60;;;;;;;;;;5043782;28;21017;-87
2022/06/23 11:22:35;;;;;;;59.33;3.57;;;;;;;;;;5054852;28;20425;-83
2022/06/23 11:25:06;;;;;;;59.03;3.30;;;;;;;;;;5054798;28;20491;-88
2022/06/23 11:27:40;;;;;;;59.03;3.60;;;;;;;;;;5054335;28;20460;-85
2022/06/23 11:30:26;;;;;;;58.30;2.97;;;;;;;;;;5054856;28;20453;-86
2022/06/23 11:33:11;;;;;;;57.70;3.30;;;;;;;;;;5053460;28;20447;-88
2022/06/23 11:35:57;;;;;;;58.97;3.63;;;;;;;;;;5054361;28;20927;-87
2022/06/23 11:38:33;;;;;;;61.37;3.53;;;;;;;;;;5054375;28;20514;-86
2022/06/23 11:41:04;;;;;;;58.90;3.20;;;;;;;;;;5054637;28;20479;-85
2022/06/23 11:43:37;;;;;;;59.37;3.47;;;;;;;;;;5054565;28;20483;-87
2022/06/23 11:46:10;;;;;;;58.87;3.87;;;;;;;;;;5054247;28;20429;-87
2022/06/23 11:48:48;;;;;;;63.13;3.80;;;;;;;;;;5054276;28;20452;-84
2022/06/23 11:51:22;;;;;;;61.13;3.37;;;;;;;;;;5052487;28;20476;-82
2022/06/23 11:53:57;;;;;;;59.47;3.27;;;;;;;;;;5057155;28;20425;-85
2022/06/23 11:56:30;;;;;;;61.87;3.37;;;;;;;;;;5054613;28;20475;-87
2022/06/23 11:59:04;;;;;;;57.77;3.10;;;;;;;;;;5053861;28;20436;-83
2022/06/23 12:01:31;;;;;;;59.87;4.10;;;;;;;;;;5052219;28;20465;-85
2022/06/23 12:04:17;;;;;;;58.90;3.30;;;;;;;;;;5054210;28;20451;-83
2022/06/23 12:06:50;;;;;;;63.03;4.20;;;;;;;;;;5054197;28;20499;-86
2022/06/23 12:09:24;;;;;;;58.87;3.67;;;;;;;;;;5054915;28;20417;-85
2022/06/23 12:11:51;;;;;;;60.70;3.23;;;;;;;;;;5054000;28;20481;-85
2022/06/23 12:14:19;;;;;;;58.90;3.00;;;;;;;;;;5054042;28;20510;-87
2022/06/23 12:16:49;;;;;;;58.87;3.67;;;;;;;;;;5053609;28;20472;-87
2022/06/23 12:19:17;;;;;;;59.37;3.33;;;;;;;;;;5054094;28;20432;-82
2022/06/23 12:21:48;;;;;;;66.03;3.30;;;;;;;;;;5053250;28;20452;-83
2022/06/23 12:24:21;;;;;;;58.40;2.67;;;;;;;;;;5053652;28;20923;-85
2022/06/23 12:26:52;;;;;;;59.13;3.80;;;;;;;;;;5061636;28;20511;-86
2022/06/23 12:29:21;;;;;;;58.93;3.00;;;;;;;;;;5054278;28;20451;-86
2022/06/23 12:31:54;;;;;;;58.50;2.77;;;;;;;;;;5053662;28;20464;-85
2022/06/23 12:34:26;;;;;;;58.37;2.73;;;;;;;;;;5050786;28;20518;-84
2022/06/23 12:37:00;;;;;;;58.07;2.83;;;;;;;;;;5052897;28;20551;-85
2022/06/23 12:39:31;;;;;;;58.97;3.10;;;;;;;;;;5052891;28;20421;-85
2022/06/23 12:42:04;;;;;;;62.20;2.97;;;;;;;;;;5052699;28;20804;-85
2022/06/23 12:44:38;;;;;;;59.60;2.83;;;;;;;;;;5052726;28;20444;-85
2022/06/23 12:47:11;;;;;;;58.80;3.30;;;;;;;;;;5052758;28;20464;-87
2022/06/23 12:49:50;;;;;;;59.40;2.90;;;;;;;;;;5052620;28;20926;-85
2022/06/23 12:52:24;;;;;;;65.27;3.60;;;;;;;;;;5052859;28;20435;-85
2022/06/23 12:55:12;;;;;;;58.30;3.20;;;;;;;;;;5052611;28;20892;-83
2022/06/23 12:57:51;;;;;;;59.17;3.27;;;;;;;;;;5053167;28;20523;-82
2022/06/23 13:00:24;;;;;;;59.70;2.73;;;;;;;;;;5053163;28;20502;-85
2022/06/23 13:02:53;;;;;;;62.60;3.20;;;;;;;;;;5052301;28;20895;-86
2022/06/23 13:05:23;;;;;;;58.90;3.40;;;;;;;;;;5051486;28;20437;-86
2022/06/23 13:07:52;;;;;;;60.80;3.53;;;;;;;;;;5052583;28;20966;-84
2022/06/23 13:10:23;;;;;;;59.47;2.97;;;;;;;;;;5053236;28;21251;-86
2022/06/23 13:12:59;;;;;;;59.77;3.07;;;;;;;;;;5052219;28;20445;-87
2022/06/23 13:15:32;;;;;;;60.27;3.40;;;;;;;;;;5051891;28;20490;-86
2022/06/23 13:18:04;;;;;;;64.97;3.10;;;;;;;;;;5051935;28;20449;-86
2022/06/23 13:20:36;;;;;;;59.07;3.10;;;;;;;;;;5052411;28;20457;-87
2022/06/23 13:23:05;;;;;;;59.50;2.90;;;;;;;;;;5052152;28;20456;-87
2022/06/23 13:25:34;;;;;;;58.00;2.90;;;;;;;;;;5052593;28;20440;-86
2022/06/23 13:28:04;;;;;;;64.40;3.00;;;;;;;;;;5051666;28;20483;-85
2022/06/23 13:30:35;;;;;;;59.67;3.20;;;;;;;;;;5052242;28;20464;-86
2022/06/23 13:33:05;;;;;;;61.40;3.67;;;;;;;;;;5052234;28;20464;-86
2022/06/23 13:35:35;;;;;;;63.07;3.37;;;;;;;;;;5050711;28;20519;-86
2022/06/23 13:38:09;;;;;;;63.30;3.50;;;;;;;;;;5031388;28;20449;-86
2022/06/23 13:40:41;;;;;;;58.60;2.87;;;;;;;;;;5031956;28;20473;-84
2022/06/23 13:43:12;;;;;;;61.87;3.97;;;;;;;;;;5031554;28;20465;-84
2022/06/23 13:45:42;;;;;;;62.40;3.10;;;;;;;;;;5032512;28;20869;-86
2022/06/23 13:48:15;;;;;;;59.00;3.43;;;;;;;;;;5031406;28;20481;-85
2022/06/23 13:50:48;;;;;;;59.60;3.30;;;;;;;;;;5032300;28;21018;-86
2022/06/23 13:53:18;;;;;;;60.47;3.50;;;;;;;;;;5032228;28;20468;-84
2022/06/23 13:55:49;;;;;;;59.10;3.17;;;;;;;;;;5031015;28;20441;-84
2022/06/23 13:58:22;;;;;;;58.80;3.40;;;;;;;;;;5031613;28;20862;-84
2022/06/23 14:00:51;;;;;;;58.43;3.07;;;;;;;;;;5032280;28;20468;-84
2022/06/23 14:03:21;;;;;;;58.47;3.20;;;;;;;;;;5031338;28;20456;-86
2022/06/23 14:05:53;;;;;;;57.40;2.30;;;;;;;;;;5032067;28;20461;-85
2022/06/23 14:08:22;;;;;;;58.70;3.13;;;;;;;;;;5031117;28;20485;-84
2022/06/23 14:10:56;;;;;;;59.00;2.70;;;;;;;;;;5032247;28;20464;-85
2022/06/23 14:13:28;;;;;;;62.37;3.90;;;;;;;;;;5032527;28;20536;-83
2022/06/23 14:15:59;;;;;;;58.20;2.97;;;;;;;;;;5032183;28;20495;-85
2022/06/23 14:18:33;;;;;;;60.10;3.60;;;;;;;;;;5032483;28;20794;-82
2022/06/23 14:21:09;;;;;;;63.33;4.60;;;;;;;;;;5033636;28;20457;-83
2022/06/23 14:23:46;;;;;;;60.60;3.30;;;;;;;;;;5034377;28;20437;-81
2022/06/23 14:26:16;;;;;;;58.87;2.60;;;;;;;;;;5032480;28;20448;-84
2022/06/23 14:28:49;;;;;;;58.80;3.50;;;;;;;;;;5032549;28;20520;-81
2022/06/23 14:31:19;;;;;;;59.40;3.60;;;;;;;;;;5032005;28;20450;-85
2022/06/23 14:33:49;;;;;;;58.07;3.10;;;;;;;;;;5032358;28;20453;-84
2022/06/23 14:36:19;;;;;;;58.37;3.20;;;;;;;;;;5032040;28;20849;-84
2022/06/23 14:38:48;;;;;;;58.20;3.20;;;;;;;;;;5031508;28;20515;-84
2022/06/23 14:41:25;;;;;;;58.23;3.53;;;;;;;;;;5032222;28;20461;-85
2022/06/23 14:44:06;;;;;;;60.20;3.47;;;;;;;;;;5032716;28;20479;-84
2022/06/23 14:46:37;;;;;;;58.60;3.17;;;;;;;;;;5033235;28;20432;-85
2022/06/23 14:49:23;;;;;;;59.37;3.60;;;;;;;;;;5049406;28;20485;-83
2022/06/23 14:51:53;;;;;;;59.70;3.70;;;;;;;;;;5038904;28;20457;-85
2022/06/23 14:54:22;;;;;;;58.53;3.10;;;;;;;;;;5039400;28;20487;-85
2022/06/23 14:56:52;;;;;;;58.80;3.03;;;;;;;;;;5033197;28;20867;-84
2022/06/23 14:59:25;;;;;;;58.27;3.20;;;;;;;;;;5031759;28;20444;-85
2022/06/23 15:01:56;;;;;;;63.03;4.47;;;;;;;;;;5031845;28;20584;-85
2022/06/23 15:04:27;;;;;;;58.90;3.00;;;;;;;;;;5031893;28;20445;-85
2022/06/23 15:06:57;;;;;;;60.57;3.47;;;;;;;;;;5035416;28;20876;-85